createdAt,value
2018-06-01T00:00:18.095Z,931.26
2018-06-01T00:01:18.277Z,931.27
2018-06-01T00:02:18.138Z,931.24
2018-06-01T00:03:18.155Z,931.26
2018-06-01T00:04:18.159Z,931.21
2018-06-01T00:05:18.182Z,931.22
2018-06-01T00:06:18.287Z,931.22
2018-06-01T00:07:18.207Z,931.22
2018-06-01T00:08:18.228Z,931.24
2018-06-01T00:09:18.228Z,931.24
2018-06-01T00:10:18.247Z,931.29
2018-06-01T00:11:18.460Z,931.24
2018-06-01T00:12:18.272Z,931.30
2018-06-01T00:13:18.292Z,931.31
2018-06-01T00:14:18.307Z,931.28
2018-06-01T00:15:18.315Z,931.32
2018-06-01T00:16:18.516Z,931.32
2018-06-01T00:17:18.341Z,931.32
2018-06-01T00:18:18.347Z,931.34
2018-06-01T00:19:18.372Z,931.33
2018-06-01T00:20:18.396Z,931.37
2018-06-01T00:21:18.589Z,931.35
2018-06-01T00:22:18.420Z,931.36
2018-06-01T00:23:18.426Z,931.36
2018-06-01T00:24:18.444Z,931.39
2018-06-01T00:25:18.451Z,931.39
2018-06-01T00:26:18.675Z,931.41
2018-06-01T00:27:18.495Z,931.43
2018-06-01T00:28:18.501Z,931.39
2018-06-01T00:29:18.492Z,931.38
2018-06-01T00:30:18.532Z,931.38
2018-06-01T00:31:18.734Z,931.43
2018-06-01T00:32:18.560Z,931.44
2018-06-01T00:33:18.548Z,931.46
2018-06-01T00:34:18.575Z,931.48
2018-06-01T00:35:18.579Z,931.53
2018-06-01T00:36:18.756Z,931.54
2018-06-01T00:37:18.633Z,931.53
2018-06-01T00:38:18.634Z,931.52
2018-06-01T00:39:18.648Z,931.49
2018-06-01T00:40:18.657Z,931.47
2018-06-01T00:41:18.831Z,931.48
2018-06-01T00:42:18.698Z,931.48
2018-06-01T00:43:18.688Z,931.50
2018-06-01T00:44:18.713Z,931.51
2018-06-01T00:45:18.720Z,931.51
2018-06-01T00:46:18.881Z,931.55
2018-06-01T00:47:18.742Z,931.53
2018-06-01T00:48:18.771Z,931.50
2018-06-01T00:49:18.797Z,931.50
2018-06-01T00:50:18.800Z,931.50
2018-06-01T00:51:18.958Z,931.50
2018-06-01T00:52:18.829Z,931.47
2018-06-01T00:53:18.838Z,931.46
2018-06-01T00:54:18.846Z,931.46
2018-06-01T00:55:18.855Z,931.46
2018-06-01T00:56:18.882Z,931.47
2018-06-01T00:57:19.083Z,931.47
2018-06-01T00:58:18.921Z,931.50
2018-06-01T00:59:18.921Z,931.44
2018-06-01T01:00:18.949Z,931.44
2018-06-01T01:01:18.963Z,931.42
2018-06-01T01:02:19.105Z,931.44
2018-06-01T01:03:18.991Z,931.45
2018-06-01T01:04:19.006Z,931.44
2018-06-01T01:05:19.013Z,931.47
2018-06-01T01:06:19.007Z,931.45
2018-06-01T01:07:19.236Z,931.43
2018-06-01T01:08:19.039Z,931.43
2018-06-01T01:09:19.061Z,931.42
2018-06-01T01:10:19.082Z,931.39
2018-06-01T01:11:19.087Z,931.42
2018-06-01T01:12:19.210Z,931.36
2018-06-01T01:13:19.105Z,931.30
2018-06-01T01:14:19.116Z,931.28
2018-06-01T01:15:19.131Z,931.25
2018-06-01T01:16:19.170Z,931.23
2018-06-01T01:17:19.278Z,931.22
2018-06-01T01:18:19.172Z,931.23
2018-06-01T01:19:19.208Z,931.22
2018-06-01T01:20:19.203Z,931.17
2018-06-01T01:21:19.218Z,931.17
2018-06-01T01:22:19.432Z,931.21
2018-06-01T01:23:19.261Z,931.22
2018-06-01T01:24:19.253Z,931.21
2018-06-01T01:25:19.289Z,931.18
2018-06-01T01:26:19.307Z,931.22
2018-06-01T01:27:19.296Z,931.17
2018-06-01T01:28:19.471Z,931.19
2018-06-01T01:29:19.339Z,931.20
2018-06-01T01:30:19.337Z,931.17
2018-06-01T01:31:19.373Z,931.18
2018-06-01T01:32:19.376Z,931.21
2018-06-01T01:33:19.579Z,931.17
2018-06-01T01:34:19.395Z,931.17
2018-06-01T01:35:19.412Z,931.18
2018-06-01T01:36:19.447Z,931.15
2018-06-01T01:37:19.439Z,931.10
2018-06-01T01:38:19.570Z,931.12
2018-06-01T01:39:19.487Z,931.08
2018-06-01T01:40:19.491Z,931.08
2018-06-01T01:41:19.511Z,931.08
2018-06-01T01:42:19.520Z,931.02
2018-06-01T01:43:19.640Z,931.04
2018-06-01T01:44:19.551Z,931.04
2018-06-01T01:45:19.568Z,931.07
2018-06-01T01:46:19.578Z,931.05
2018-06-01T01:47:19.591Z,931.02
2018-06-01T01:48:19.706Z,931.03
2018-06-01T01:49:19.617Z,930.97
2018-06-01T01:50:19.632Z,930.98
2018-06-01T01:51:19.647Z,930.94
2018-06-01T01:52:19.656Z,930.97
2018-06-01T01:53:19.775Z,930.98
2018-06-01T01:54:19.694Z,930.94
2018-06-01T01:55:19.692Z,930.95
2018-06-01T01:56:19.721Z,930.98
2018-06-01T01:57:19.710Z,930.93
2018-06-01T01:58:19.846Z,930.90
2018-06-01T01:59:19.752Z,930.95
2018-06-01T02:00:19.755Z,930.93
2018-06-01T02:01:19.778Z,930.96
2018-06-01T02:02:19.782Z,930.99
2018-06-01T02:03:20.126Z,930.96
2018-06-01T02:04:19.811Z,930.99
2018-06-01T02:05:19.845Z,930.94
2018-06-01T02:06:19.846Z,930.97
2018-06-01T02:07:19.864Z,930.98
2018-06-01T02:08:20.034Z,930.97
2018-06-01T02:09:19.893Z,930.95
2018-06-01T02:10:19.904Z,930.97
2018-06-01T02:11:19.941Z,930.97
2018-06-01T02:12:19.926Z,930.96
2018-06-01T02:13:20.050Z,930.96
2018-06-01T02:14:19.948Z,930.93
2018-06-01T02:15:19.976Z,930.93
2018-06-01T02:16:19.968Z,930.91
2018-06-01T02:17:20.004Z,930.92
2018-06-01T02:18:20.096Z,930.89
2018-06-01T02:19:20.008Z,930.85
2018-06-01T02:20:20.051Z,930.85
2018-06-01T02:21:20.056Z,930.87
2018-06-01T02:22:20.067Z,930.91
2018-06-01T02:23:20.175Z,930.91
2018-06-01T02:24:20.087Z,930.91
2018-06-01T02:25:20.088Z,930.96
2018-06-01T02:26:20.107Z,930.91
2018-06-01T02:27:20.123Z,930.88
2018-06-01T02:28:20.234Z,930.93
2018-06-01T02:29:20.148Z,930.92
2018-06-01T02:30:20.161Z,930.90
2018-06-01T02:31:20.171Z,930.91
2018-06-01T02:32:20.198Z,930.91
2018-06-01T02:33:20.397Z,930.90
2018-06-01T02:34:20.212Z,930.86
2018-06-01T02:35:20.242Z,930.88
2018-06-01T02:36:20.243Z,930.83
2018-06-01T02:37:20.264Z,930.84
2018-06-01T02:38:20.379Z,930.87
2018-06-01T02:39:20.295Z,930.82
2018-06-01T02:40:20.307Z,930.88
2018-06-01T02:41:20.330Z,930.88
2018-06-01T02:42:20.345Z,930.88
2018-06-01T02:43:20.355Z,930.89
2018-06-01T02:44:20.471Z,930.91
2018-06-01T02:45:20.365Z,930.94
2018-06-01T02:46:20.373Z,930.91
2018-06-01T02:47:20.392Z,930.92
2018-06-01T02:48:20.428Z,930.92
2018-06-01T02:49:20.546Z,930.93
2018-06-01T02:50:20.430Z,930.96
2018-06-01T02:51:20.467Z,930.97
2018-06-01T02:52:20.471Z,931.00
2018-06-01T02:53:20.490Z,930.99
2018-06-01T02:54:20.486Z,930.98
2018-06-01T02:55:20.609Z,931.04
2018-06-01T02:56:20.533Z,930.99
2018-06-01T02:57:20.539Z,930.99
2018-06-01T02:58:20.553Z,930.97
2018-06-01T02:59:20.575Z,930.99
2018-06-01T03:00:20.683Z,930.99
2018-06-01T03:01:20.717Z,931.01
2018-06-01T03:02:20.618Z,931.02
2018-06-01T03:03:20.625Z,931.04
2018-06-01T03:04:20.619Z,930.99
2018-06-01T03:05:20.750Z,930.99
2018-06-01T03:06:20.660Z,930.95
2018-06-01T03:07:20.686Z,930.95
2018-06-01T03:08:20.682Z,930.93
2018-06-01T03:09:20.695Z,930.90
2018-06-01T03:10:20.704Z,930.91
2018-06-01T03:11:20.924Z,930.90
2018-06-01T03:12:20.746Z,930.91
2018-06-01T03:13:20.744Z,930.86
2018-06-01T03:14:20.769Z,930.89
2018-06-01T03:15:20.796Z,930.86
2018-06-01T03:16:20.894Z,930.85
2018-06-01T03:17:20.840Z,930.86
2018-06-01T03:18:20.820Z,930.89
2018-06-01T03:19:20.840Z,930.89
2018-06-01T03:20:20.851Z,930.90
2018-06-01T03:21:20.852Z,930.92
2018-06-01T03:22:20.983Z,930.92
2018-06-01T03:23:20.894Z,930.91
2018-06-01T03:24:20.919Z,930.92
2018-06-01T03:25:20.924Z,930.91
2018-06-01T03:26:20.923Z,930.92
2018-06-01T03:27:21.039Z,930.96
2018-06-01T03:28:20.951Z,930.94
2018-06-01T03:29:20.990Z,930.94
2018-06-01T03:30:21.004Z,930.96
2018-06-01T03:31:21.014Z,930.98
2018-06-01T03:32:21.130Z,930.98
2018-06-01T03:33:21.030Z,930.98
2018-06-01T03:34:21.048Z,930.96
2018-06-01T03:35:21.049Z,930.96
2018-06-01T03:36:21.074Z,930.94
2018-06-01T03:37:21.175Z,930.93
2018-06-01T03:38:21.087Z,930.93
2018-06-01T03:39:21.117Z,930.88
2018-06-01T03:40:21.115Z,930.87
2018-06-01T03:41:21.156Z,930.88
2018-06-01T03:42:21.260Z,930.88
2018-06-01T03:43:21.184Z,930.87
2018-06-01T03:44:21.192Z,930.89
2018-06-01T03:45:21.183Z,930.85
2018-06-01T03:46:21.200Z,930.85
2018-06-01T03:47:21.317Z,930.85
2018-06-01T03:48:21.246Z,930.85
2018-06-01T03:49:21.245Z,930.90
2018-06-01T03:50:21.255Z,930.91
2018-06-01T03:51:21.268Z,930.91
2018-06-01T03:52:21.382Z,930.90
2018-06-01T03:53:21.313Z,930.89
2018-06-01T03:54:21.330Z,930.84
2018-06-01T03:55:21.327Z,930.87
2018-06-01T03:56:21.337Z,930.87
2018-06-01T03:57:21.476Z,930.87
2018-06-01T03:58:21.389Z,930.85
2018-06-01T03:59:21.406Z,930.87
2018-06-01T04:00:21.403Z,930.82
2018-06-01T04:01:21.434Z,930.84
2018-06-01T04:02:21.431Z,930.82
2018-06-01T04:03:21.555Z,930.85
2018-06-01T04:04:21.461Z,930.83
2018-06-01T04:05:21.482Z,930.80
2018-06-01T04:06:21.485Z,930.77
2018-06-01T04:07:21.488Z,930.77
2018-06-01T04:08:21.513Z,930.73
2018-06-01T04:09:21.616Z,930.75
2018-06-01T04:10:21.550Z,930.73
2018-06-01T04:11:21.561Z,930.71
2018-06-01T04:12:21.571Z,930.71
2018-06-01T04:13:21.576Z,930.71
2018-06-01T04:14:21.699Z,930.68
2018-06-01T04:15:21.615Z,930.67
2018-06-01T04:16:21.625Z,930.73
2018-06-01T04:17:21.628Z,930.72
2018-06-01T04:18:21.668Z,930.78
2018-06-01T04:19:21.667Z,930.77
2018-06-01T04:20:21.895Z,930.78
2018-06-01T04:21:21.687Z,930.73
2018-06-01T04:22:21.702Z,930.77
2018-06-01T04:23:21.727Z,930.76
2018-06-01T04:24:21.750Z,930.74
2018-06-01T04:25:21.859Z,930.77
2018-06-01T04:26:21.752Z,930.77
2018-06-01T04:27:21.767Z,930.81
2018-06-01T04:28:21.796Z,930.79
2018-06-01T04:29:21.814Z,930.84
2018-06-01T04:30:21.929Z,930.82
2018-06-01T04:31:21.828Z,930.80
2018-06-01T04:32:21.845Z,930.85
2018-06-01T04:33:21.862Z,930.85
2018-06-01T04:34:21.885Z,930.85
2018-06-01T04:35:21.977Z,930.84
2018-06-01T04:36:21.904Z,930.82
2018-06-01T04:37:21.929Z,930.80
2018-06-01T04:38:21.930Z,930.80
2018-06-01T04:39:21.937Z,930.78
2018-06-01T04:40:22.068Z,930.77
2018-06-01T04:41:21.982Z,930.78
2018-06-01T04:42:21.987Z,930.78
2018-06-01T04:43:22.009Z,930.81
2018-06-01T04:44:22.015Z,930.81
2018-06-01T04:45:22.139Z,930.82
2018-06-01T04:46:22.031Z,930.84
2018-06-01T04:47:22.058Z,930.83
2018-06-01T04:48:22.057Z,930.86
2018-06-01T04:49:22.085Z,930.87
2018-06-01T04:50:22.182Z,930.88
2018-06-01T04:51:22.109Z,930.90
2018-06-01T04:52:22.136Z,930.90
2018-06-01T04:53:22.143Z,930.92
2018-06-01T04:54:22.153Z,930.95
2018-06-01T04:55:22.274Z,930.92
2018-06-01T04:56:22.167Z,930.96
2018-06-01T04:57:22.201Z,930.94
2018-06-01T04:58:22.221Z,930.94
2018-06-01T04:59:22.221Z,930.91
2018-06-01T05:00:22.326Z,930.87
2018-06-01T05:01:22.257Z,930.86
2018-06-01T05:02:22.261Z,930.81
2018-06-01T05:03:22.280Z,930.80
2018-06-01T05:04:22.290Z,930.81
2018-06-01T05:05:22.414Z,930.82
2018-06-01T05:06:22.326Z,930.81
2018-06-01T05:07:22.335Z,930.76
2018-06-01T05:08:22.353Z,930.73
2018-06-01T05:09:22.370Z,930.73
2018-06-01T05:10:22.487Z,930.71
2018-06-01T05:11:22.394Z,930.71
2018-06-01T05:12:22.394Z,930.71
2018-06-01T05:13:22.420Z,930.74
2018-06-01T05:14:22.431Z,930.72
2018-06-01T05:15:22.551Z,930.68
2018-06-01T05:16:22.459Z,930.65
2018-06-01T05:17:22.477Z,930.64
2018-06-01T05:18:22.487Z,930.60
2018-06-01T05:19:22.501Z,930.62
2018-06-01T05:20:22.618Z,930.59
2018-06-01T05:21:22.530Z,930.59
2018-06-01T05:22:22.549Z,930.62
2018-06-01T05:23:22.540Z,930.59
2018-06-01T05:24:22.558Z,930.56
2018-06-01T05:25:22.673Z,930.53
2018-06-01T05:26:22.609Z,930.56
2018-06-01T05:27:22.621Z,930.53
2018-06-01T05:28:22.627Z,930.53
2018-06-01T05:29:22.654Z,930.48
2018-06-01T05:30:22.739Z,930.48
2018-06-01T05:31:22.651Z,930.45
2018-06-01T05:32:22.667Z,930.43
2018-06-01T05:33:22.692Z,930.42
2018-06-01T05:34:22.699Z,930.43
2018-06-01T05:35:22.782Z,930.42
2018-06-01T05:36:22.827Z,930.43
2018-06-01T05:37:22.737Z,930.47
2018-06-01T05:38:22.777Z,930.47
2018-06-01T05:39:22.767Z,930.43
2018-06-01T05:40:22.801Z,930.44
2018-06-01T05:41:22.916Z,930.43
2018-06-01T05:42:22.819Z,930.43
2018-06-01T05:43:22.839Z,930.41
2018-06-01T05:44:22.829Z,930.39
2018-06-01T05:45:22.871Z,930.38
2018-06-01T05:46:22.984Z,930.34
2018-06-01T05:47:22.957Z,930.32
2018-06-01T05:48:22.912Z,930.35
2018-06-01T05:49:22.900Z,930.31
2018-06-01T05:50:22.970Z,930.23
2018-06-01T05:51:23.039Z,930.24
2018-06-01T05:52:22.947Z,930.24
2018-06-01T05:53:22.982Z,930.21
2018-06-01T05:54:23.040Z,930.21
2018-06-01T05:55:22.996Z,930.16
2018-06-01T05:56:23.101Z,930.10
2018-06-01T05:57:23.013Z,930.10
2018-06-01T05:58:23.047Z,930.09
2018-06-01T05:59:23.079Z,930.11
2018-06-01T06:00:23.075Z,930.11
2018-06-01T06:01:23.180Z,930.09
2018-06-01T06:02:23.087Z,930.08
2018-06-01T06:03:23.120Z,930.07
2018-06-01T06:04:23.113Z,930.04
2018-06-01T06:05:23.126Z,930.06
2018-06-01T06:06:23.250Z,930.05
2018-06-01T06:07:23.162Z,930.03
2018-06-01T06:08:23.189Z,930.05
2018-06-01T06:09:23.196Z,930.03
2018-06-01T06:10:23.198Z,930.07
2018-06-01T06:11:23.309Z,930.07
2018-06-01T06:12:23.220Z,930.06
2018-06-01T06:13:23.338Z,930.06
2018-06-01T06:14:23.269Z,930.06
2018-06-01T06:15:23.288Z,930.05
2018-06-01T06:16:23.293Z,930.08
2018-06-01T06:17:23.466Z,930.06
2018-06-01T06:18:23.326Z,930.08
2018-06-01T06:19:23.330Z,930.05
2018-06-01T06:20:23.333Z,930.03
2018-06-01T06:21:23.350Z,930.06
2018-06-01T06:22:23.464Z,930.05
2018-06-01T06:23:23.401Z,930.05
2018-06-01T06:24:23.401Z,930.09
2018-06-01T06:25:23.403Z,930.11
2018-06-01T06:26:23.441Z,930.12
2018-06-01T06:27:23.428Z,930.08
2018-06-01T06:28:23.566Z,930.11
2018-06-01T06:29:23.481Z,930.08
2018-06-01T06:30:23.494Z,930.09
2018-06-01T06:31:23.549Z,930.07
2018-06-01T06:32:23.524Z,930.09
2018-06-01T06:33:23.632Z,930.09
2018-06-01T06:34:23.540Z,930.09
2018-06-01T06:35:23.540Z,930.09
2018-06-01T06:36:23.551Z,930.10
2018-06-01T06:37:23.567Z,930.09
2018-06-01T06:38:23.706Z,930.09
2018-06-01T06:39:23.607Z,930.11
2018-06-01T06:40:23.628Z,930.08
2018-06-01T06:41:23.636Z,930.14
2018-06-01T06:42:23.656Z,930.20
2018-06-01T06:43:23.782Z,930.18
2018-06-01T06:44:23.766Z,930.13
2018-06-01T06:45:23.680Z,930.13
2018-06-01T06:46:23.710Z,930.08
2018-06-01T06:47:23.702Z,930.00
2018-06-01T06:48:23.721Z,930.01
2018-06-01T06:49:23.845Z,929.91
2018-06-01T06:50:23.753Z,929.93
2018-06-01T06:51:23.782Z,929.96
2018-06-01T06:52:23.784Z,929.90
2018-06-01T06:53:23.781Z,929.92
2018-06-01T06:54:23.945Z,929.96
2018-06-01T06:55:23.814Z,929.99
2018-06-01T06:56:23.846Z,929.99
2018-06-01T06:57:23.857Z,930.01
2018-06-01T06:58:23.853Z,930.05
2018-06-01T06:59:23.863Z,930.04
2018-06-01T07:00:23.973Z,930.03
2018-06-01T07:01:23.889Z,930.03
2018-06-01T07:02:23.914Z,930.06
2018-06-01T07:03:23.937Z,930.07
2018-06-01T07:04:23.935Z,930.09
2018-06-01T07:05:24.062Z,930.10
2018-06-01T07:06:23.967Z,930.16
2018-06-01T07:07:23.973Z,930.18
2018-06-01T07:09:24.013Z,930.13
2018-06-01T07:10:24.112Z,930.14
2018-06-01T07:11:24.021Z,930.10
2018-06-01T07:12:24.045Z,930.11
2018-06-01T07:13:24.053Z,930.11
2018-06-01T07:14:24.064Z,930.15
2018-06-01T07:15:24.186Z,930.17
2018-06-01T07:16:24.087Z,930.15
2018-06-01T07:17:24.113Z,930.17
2018-06-01T07:18:24.125Z,930.15
2018-06-01T07:19:24.129Z,930.13
2018-06-01T07:20:24.308Z,930.13
2018-06-01T07:21:24.174Z,930.11
2018-06-01T07:22:24.237Z,930.18
2018-06-01T07:23:24.184Z,930.16
2018-06-01T07:24:24.190Z,930.14
2018-06-01T07:25:24.379Z,930.13
2018-06-01T07:26:24.218Z,930.12
2018-06-01T07:27:24.255Z,930.06
2018-06-01T07:28:24.254Z,930.10
2018-06-01T07:29:24.268Z,930.07
2018-06-01T07:30:24.392Z,930.07
2018-06-01T07:31:24.299Z,930.08
2018-06-01T07:32:24.319Z,930.04
2018-06-01T07:33:24.327Z,930.06
2018-06-01T07:34:24.347Z,930.07
2018-06-01T07:35:24.453Z,930.08
2018-06-01T07:36:24.374Z,930.12
2018-06-01T07:37:24.381Z,930.17
2018-06-01T07:38:24.396Z,930.13
2018-06-01T07:39:24.397Z,930.14
2018-06-01T07:40:24.577Z,930.16
2018-06-01T07:41:24.443Z,930.15
2018-06-01T07:42:24.459Z,930.14
2018-06-01T07:43:24.459Z,930.14
2018-06-01T07:44:24.484Z,930.18
2018-06-01T07:45:24.621Z,930.22
2018-06-01T07:46:24.501Z,930.24
2018-06-01T07:47:24.501Z,930.18
2018-06-01T07:48:24.526Z,930.22
2018-06-01T07:49:24.547Z,930.15
2018-06-01T07:50:24.566Z,930.12
2018-06-01T07:51:24.705Z,930.11
2018-06-01T07:52:24.592Z,930.09
2018-06-01T07:53:24.596Z,930.09
2018-06-01T07:54:24.593Z,930.10
2018-06-01T07:55:24.609Z,930.10
2018-06-01T07:56:24.731Z,930.11
2018-06-01T07:57:24.635Z,930.11
2018-06-01T07:58:24.660Z,930.03
2018-06-01T07:59:24.673Z,930.01
2018-06-01T08:00:24.675Z,929.97
2018-06-01T08:01:24.803Z,930.02
2018-06-01T08:02:24.706Z,930.00
2018-06-01T08:03:24.714Z,930.08
2018-06-01T08:04:24.747Z,930.09
2018-06-01T08:05:24.740Z,930.12
2018-06-01T08:06:24.854Z,930.12
2018-06-01T08:07:24.767Z,930.15
2018-06-01T08:08:24.785Z,930.19
2018-06-01T08:09:24.806Z,930.19
2018-06-01T08:10:24.811Z,930.23
2018-06-01T08:11:25.036Z,930.27
2018-06-01T08:12:24.856Z,930.25
2018-06-01T08:13:24.859Z,930.24
2018-06-01T08:14:24.875Z,930.17
2018-06-01T08:15:24.896Z,930.18
2018-06-01T08:16:25.093Z,930.16
2018-06-01T08:17:24.905Z,930.19
2018-06-01T08:18:24.940Z,930.19
2018-06-01T08:19:24.948Z,930.22
2018-06-01T08:20:24.965Z,930.24
2018-06-01T08:21:25.053Z,930.22
2018-06-01T08:22:24.973Z,930.20
2018-06-01T08:23:24.996Z,930.18
2018-06-01T08:24:24.994Z,930.17
2018-06-01T08:25:25.014Z,930.16
2018-06-01T08:26:25.126Z,930.21
2018-06-01T08:27:25.167Z,930.22
2018-06-01T08:28:25.079Z,930.24
2018-06-01T08:29:25.087Z,930.25
2018-06-01T08:30:25.095Z,930.22
2018-06-01T08:31:25.236Z,930.27
2018-06-01T08:32:25.184Z,930.24
2018-06-01T08:33:25.140Z,930.22
2018-06-01T08:34:25.139Z,930.20
2018-06-01T08:35:25.141Z,930.26
2018-06-01T08:36:25.273Z,930.24
2018-06-01T08:37:25.165Z,930.21
2018-06-01T08:38:25.190Z,930.19
2018-06-01T08:39:25.221Z,930.20
2018-06-01T08:40:25.216Z,930.19
2018-06-01T08:41:25.338Z,930.19
2018-06-01T08:42:25.257Z,930.25
2018-06-01T08:43:25.264Z,930.25
2018-06-01T08:44:25.254Z,930.22
2018-06-01T08:45:25.273Z,930.26
2018-06-01T08:46:25.443Z,930.24
2018-06-01T08:47:25.323Z,930.24
2018-06-01T08:48:25.335Z,930.24
2018-06-01T08:49:25.319Z,930.25
2018-06-01T08:50:25.335Z,930.28
2018-06-01T08:51:25.458Z,930.28
2018-06-01T08:52:25.416Z,930.28
2018-06-01T08:53:25.387Z,930.25
2018-06-01T08:54:25.398Z,930.29
2018-06-01T08:55:25.419Z,930.30
2018-06-01T08:56:25.415Z,930.32
2018-06-01T08:57:25.545Z,930.29
2018-06-01T08:58:25.437Z,930.24
2018-06-01T08:59:25.463Z,930.25
2018-06-01T09:00:25.461Z,930.24
2018-06-01T09:01:25.499Z,930.23
2018-06-01T09:02:25.604Z,930.25
2018-06-01T09:03:25.499Z,930.27
2018-06-01T09:04:25.526Z,930.29
2018-06-01T09:05:25.544Z,930.30
2018-06-01T09:06:25.568Z,930.30
2018-06-01T09:07:25.672Z,930.32
2018-06-01T09:08:25.561Z,930.32
2018-06-01T09:09:25.632Z,930.32
2018-06-01T09:10:25.615Z,930.31
2018-06-01T09:11:25.616Z,930.30
2018-06-01T09:12:25.816Z,930.33
2018-06-01T09:13:25.640Z,930.35
2018-06-01T09:14:25.689Z,930.38
2018-06-01T09:15:25.650Z,930.35
2018-06-01T09:16:25.692Z,930.36
2018-06-01T09:17:25.777Z,930.37
2018-06-01T09:18:25.700Z,930.31
2018-06-01T09:19:25.727Z,930.34
2018-06-01T09:20:25.723Z,930.32
2018-06-01T09:21:25.731Z,930.33
2018-06-01T09:22:25.840Z,930.36
2018-06-01T09:23:25.755Z,930.36
2018-06-01T09:24:25.772Z,930.35
2018-06-01T09:25:25.795Z,930.37
2018-06-01T09:26:25.803Z,930.42
2018-06-01T09:27:25.914Z,930.46
2018-06-01T09:28:25.860Z,930.47
2018-06-01T09:29:25.825Z,930.50
2018-06-01T09:30:25.860Z,930.51
2018-06-01T09:31:25.871Z,930.52
2018-06-01T09:32:25.987Z,930.56
2018-06-01T09:33:25.879Z,930.62
2018-06-01T09:34:26.036Z,930.67
2018-06-01T09:35:25.912Z,930.68
2018-06-01T09:36:25.916Z,930.71
2018-06-01T09:37:26.028Z,930.68
2018-06-01T09:38:25.937Z,930.66
2018-06-01T09:39:25.971Z,930.72
2018-06-01T09:40:25.961Z,930.69
2018-06-01T09:41:25.997Z,930.70
2018-06-01T09:42:26.106Z,930.70
2018-06-01T09:43:26.024Z,930.71
2018-06-01T09:44:26.014Z,930.72
2018-06-01T09:45:26.035Z,930.73
2018-06-01T09:46:26.035Z,930.75
2018-06-01T09:47:26.150Z,930.74
2018-06-01T09:48:26.079Z,930.75
2018-06-01T09:49:26.088Z,930.76
2018-06-01T09:50:26.088Z,930.82
2018-06-01T09:51:26.107Z,930.77
2018-06-01T09:52:26.235Z,930.85
2018-06-01T09:53:26.138Z,930.87
2018-06-01T09:54:26.137Z,930.87
2018-06-01T09:55:26.218Z,930.90
2018-06-01T09:56:26.181Z,930.89
2018-06-01T09:57:26.341Z,930.89
2018-06-01T09:58:26.203Z,930.90
2018-06-01T09:59:26.220Z,930.89
2018-06-01T10:00:26.220Z,930.87
2018-06-01T10:01:26.239Z,930.93
2018-06-01T10:02:26.357Z,930.90
2018-06-01T10:03:26.247Z,930.92
2018-06-01T10:04:26.279Z,930.92
2018-06-01T10:05:26.276Z,930.96
2018-06-01T10:06:26.286Z,930.98
2018-06-01T10:07:26.391Z,931.00
2018-06-01T10:08:26.307Z,931.02
2018-06-01T10:09:26.314Z,931.02
2018-06-01T10:10:26.331Z,931.03
2018-06-01T10:11:26.340Z,931.04
2018-06-01T10:12:26.373Z,931.01
2018-06-01T10:13:26.478Z,930.99
2018-06-01T10:14:26.397Z,931.05
2018-06-01T10:15:26.410Z,931.03
2018-06-01T10:16:26.403Z,931.07
2018-06-01T10:17:26.428Z,931.09
2018-06-01T10:18:26.528Z,931.09
2018-06-01T10:19:26.468Z,931.09
2018-06-01T10:20:26.459Z,931.05
2018-06-01T10:21:26.498Z,931.04
2018-06-01T10:22:26.508Z,931.03
2018-06-01T10:23:26.600Z,930.98
2018-06-01T10:24:26.531Z,930.95
2018-06-01T10:25:26.525Z,930.96
2018-06-01T10:26:26.557Z,930.98
2018-06-01T10:27:26.566Z,930.97
2018-06-01T10:28:26.566Z,930.92
2018-06-01T10:29:26.726Z,930.94
2018-06-01T10:30:26.588Z,930.96
2018-06-01T10:31:26.626Z,930.98
2018-06-01T10:32:26.637Z,930.94
2018-06-01T10:33:26.641Z,930.97
2018-06-01T10:34:26.799Z,931.03
2018-06-01T10:35:26.672Z,931.01
2018-06-01T10:36:26.677Z,931.05
2018-06-01T10:37:26.698Z,931.06
2018-06-01T10:38:26.716Z,931.11
2018-06-01T10:39:26.739Z,931.13
2018-06-01T10:40:26.889Z,931.18
2018-06-01T10:41:26.768Z,931.27
2018-06-01T10:42:26.766Z,931.26
2018-06-01T10:43:26.782Z,931.30
2018-06-01T10:44:26.815Z,931.28
2018-06-01T10:45:26.908Z,931.29
2018-06-01T10:46:26.849Z,931.30
2018-06-01T10:47:26.843Z,931.27
2018-06-01T10:48:26.860Z,931.36
2018-06-01T10:49:26.889Z,931.36
2018-06-01T10:50:27.008Z,931.38
2018-06-01T10:51:26.917Z,931.40
2018-06-01T10:52:26.920Z,931.39
2018-06-01T10:53:26.953Z,931.36
2018-06-01T10:54:27.021Z,931.37
2018-06-01T10:55:27.081Z,931.38
2018-06-01T10:56:26.985Z,931.40
2018-06-01T10:57:27.003Z,931.42
2018-06-01T10:58:27.036Z,931.42
2018-06-01T10:59:27.046Z,931.45
2018-06-01T11:00:27.164Z,931.49
2018-06-01T11:01:27.069Z,931.52
2018-06-01T11:02:27.088Z,931.54
2018-06-01T11:03:27.117Z,931.54
2018-06-01T11:04:27.141Z,931.58
2018-06-01T11:05:27.237Z,931.56
2018-06-01T11:06:27.160Z,931.55
2018-06-01T11:07:27.177Z,931.55
2018-06-01T11:08:27.214Z,931.54
2018-06-01T11:09:27.231Z,931.57
2018-06-01T11:10:27.345Z,931.65
2018-06-01T11:11:27.247Z,931.59
2018-06-01T11:12:27.275Z,931.62
2018-06-01T11:13:27.303Z,931.67
2018-06-01T11:14:27.331Z,931.67
2018-06-01T11:15:27.435Z,931.68
2018-06-01T11:16:27.346Z,931.69
2018-06-01T11:17:27.373Z,931.71
2018-06-01T11:18:27.370Z,931.69
2018-06-01T11:19:27.408Z,931.73
2018-06-01T11:20:27.522Z,931.75
2018-06-01T11:21:27.458Z,931.83
2018-06-01T11:22:27.458Z,931.85
2018-06-01T11:23:27.465Z,931.84
2018-06-01T11:24:27.492Z,931.82
2018-06-01T11:25:27.618Z,931.82
2018-06-01T11:26:27.546Z,931.80
2018-06-01T11:27:27.563Z,931.84
2018-06-01T11:28:27.576Z,931.90
2018-06-01T11:29:27.608Z,931.87
2018-06-01T11:30:27.717Z,931.86
2018-06-01T11:31:27.628Z,931.88
2018-06-01T11:32:27.656Z,931.87
2018-06-01T11:33:27.653Z,931.89
2018-06-01T11:34:27.688Z,931.90
2018-06-01T11:35:27.703Z,931.92
2018-06-01T11:36:27.827Z,931.93
2018-06-01T11:37:27.754Z,931.97
2018-06-01T11:38:27.805Z,932.00
2018-06-01T11:39:27.792Z,932.01
2018-06-01T11:40:27.801Z,932.08
2018-06-01T11:41:27.920Z,932.02
2018-06-01T11:42:27.835Z,932.06
2018-06-01T11:43:27.875Z,932.05
2018-06-01T11:44:27.896Z,932.08
2018-06-01T11:45:27.900Z,932.07
2018-06-01T11:46:28.012Z,932.06
2018-06-01T11:47:27.948Z,932.05
2018-06-01T11:48:27.949Z,932.04
2018-06-01T11:49:27.977Z,932.03
2018-06-01T11:50:27.992Z,932.03
2018-06-01T11:51:28.157Z,932.01
2018-06-01T11:52:28.030Z,932.01
2018-06-01T11:53:28.065Z,931.99
2018-06-01T11:54:28.070Z,932.01
2018-06-01T11:55:28.115Z,932.03
2018-06-01T11:56:28.214Z,932.00
2018-06-01T11:57:28.130Z,932.01
2018-06-01T11:58:28.176Z,932.00
2018-06-01T11:59:28.176Z,932.02
2018-06-01T12:00:28.216Z,932.01
2018-06-01T12:01:28.316Z,932.03
2018-06-01T12:02:28.250Z,931.99
2018-06-01T12:03:28.274Z,932.01
2018-06-01T12:04:28.283Z,931.96
2018-06-01T12:05:28.317Z,931.99
2018-06-01T12:06:28.439Z,931.96
2018-06-01T12:07:28.354Z,932.05
2018-06-01T12:08:28.381Z,932.04
2018-06-01T12:09:28.385Z,932.02
2018-06-01T12:10:28.400Z,932.02
2018-06-01T12:11:28.516Z,932.06
2018-06-01T12:12:28.447Z,932.03
2018-06-01T12:13:28.474Z,932.05
2018-06-01T12:14:28.496Z,932.00
2018-06-01T12:15:28.508Z,932.02
2018-06-01T12:16:28.614Z,932.02
2018-06-01T12:17:28.586Z,932.07
2018-06-01T12:18:28.555Z,932.09
2018-06-01T12:19:28.580Z,932.05
2018-06-01T12:20:28.613Z,932.07
2018-06-01T12:21:28.633Z,932.07
2018-06-01T12:22:28.733Z,932.09
2018-06-01T12:23:28.653Z,932.08
2018-06-01T12:24:28.675Z,932.12
2018-06-01T12:25:28.713Z,932.13
2018-06-01T12:26:28.712Z,932.14
2018-06-01T12:27:28.839Z,932.11
2018-06-01T12:28:28.765Z,932.10
2018-06-01T12:29:28.803Z,932.05